Priwall — V2OX8 — position and weather

sailwx.info

Track history (hours):
 
Tides and Currents Weather Stations Pressure Air Temp Water Temp Dewpoint Dewpoint Depression Visibility Wind Speed Wind Dir Waves Ship Positions

Priwall

Last reported at 2015-May-24 06:09 UTC. Time now 2015-May-27 09:55 UTC.
Position N 37°52' E 015°59'.

Length 88 m; draft 5.6 m.

Type: Ship. MMSI: 304739000.

Date/timePositionNaut miles runAvg speedWind from/ knotsBaromVisibWave heightAir tempDewpointWater temp
2015-May-24 06:09N 37°52' E 015°59'9 9.1
2015-May-24 05:09N 37°52' E 015°48'6 9.4
2015-May-24 04:31N 37°54' E 015°40'9 9.0
2015-May-24 03:33N 38°01' E 015°34'10 9.9
2015-May-24 02:33N 38°11' E 015°36'7 7.5
2015-May-24 01:34N 38°18' E 015°38'9 9.3
2015-May-24 00:33N 38°20' E 015°26'10 9.9
2015-May-23 23:33N 38°20' E 015°13'10 9.5
2015-May-23 22:32N 38°20' E 015°01'10 9.0
2015-May-23 21:23N 38°20' E 014°48'43 8.7
2015-May-23 16:31N 38°20' E 013°54'9 9.2
2015-May-23 15:33N 38°20' E 013°42'9 9.0
2015-May-23 14:33N 38°20' E 013°31'9 9.0
2015-May-23 13:33N 38°20' E 013°19'9 8.9
2015-May-23 12:33N 38°20' E 013°08'9 9.0
2015-May-23 11:34N 38°20' E 012°57'11 9.0
2015-May-23 10:22N 38°20' E 012°43'16 8.6
2015-May-23 08:30N 38°17' E 012°23'  
2015-May-19 15:22N 36°24' W 001°51'8 8.9
2015-May-19 14:31N 36°23' W 002°00'12 8.4
2015-May-19 13:08N 36°21' W 002°14'5 8.4
2015-May-19 12:32N 36°20' W 002°21'10 9.2
2015-May-19 11:24N 36°19' W 002°33'132 8.7
2015-May-18 20:17N 35°56' W 005°14'5 6.4
2015-May-18 19:34N 35°54' W 005°19'0 0.1
2015-May-18 18:31N 35°54' W 005°19'0 0.0
2015-May-18 17:31N 35°54' W 005°19'1 0.7
2015-May-18 16:33N 35°55' W 005°19'8 7.4
2015-May-18 15:31N 35°57' W 005°28'199 6.6
2015-May-17 09:33N 36°43' W 009°29'8 7.4
2015-May-17 08:30N 36°50' W 009°34'16 8.2
2015-May-17 06:33N 37°06' W 009°37'10 8.4
2015-May-17 05:25N 37°15' W 009°40'9 8.6
2015-May-17 04:19N 37°24' W 009°43'8 8.8
2015-May-17 03:28N 37°31' W 009°46'8 8.6
2015-May-17 02:33N 37°39' W 009°48'9 8.8
2015-May-17 01:33N 37°48' W 009°50'9 8.4
2015-May-17 00:26N 37°57' W 009°53'8 8.5
2015-May-16 23:33N 38°04' W 009°55'9 8.6
2015-May-16 22:33N 38°13' W 009°57'9 8.7
2015-May-16 21:33N 38°21' W 009°60'9 9.0
2015-May-16 20:33N 38°30' W 010°02'9 8.8
2015-May-16 19:29N 38°39' W 010°05'8 8.8
2015-May-16 18:32N 38°47' W 010°06'11 9.1
2015-May-16 17:20N 38°58' W 010°08'8 8.8
2015-May-16 16:26N 39°06' W 010°06'  
Track history (hours):
 
Tides and Currents Weather Stations Pressure Air Temp Water Temp Dewpoint Dewpoint Depression Visibility Wind Speed Wind Dir Waves Ship Positions

Priwall

Last reported at 2015-May-24 06:09 UTC. Time now 2015-May-27 09:55 UTC.
Position N 37°52' E 015°59'.

Length 88 m; draft 5.6 m.

Type: Ship. MMSI: 304739000.

Date/timePositionNaut miles runAvg speedWind from/ knotsBaromVisibWave heightAir tempDewpointWater temp
2015-May-24 06:09N 37°52' E 015°59'9 9.1
2015-May-24 05:09N 37°52' E 015°48'6 9.4
2015-May-24 04:31N 37°54' E 015°40'9 9.0
2015-May-24 03:33N 38°01' E 015°34'10 9.9
2015-May-24 02:33N 38°11' E 015°36'7 7.5
2015-May-24 01:34N 38°18' E 015°38'9 9.3
2015-May-24 00:33N 38°20' E 015°26'10 9.9
2015-May-23 23:33N 38°20' E 015°13'10 9.5
2015-May-23 22:32N 38°20' E 015°01'10 9.0
2015-May-23 21:23N 38°20' E 014°48'43 8.7
2015-May-23 16:31N 38°20' E 013°54'9 9.2
2015-May-23 15:33N 38°20' E 013°42'9 9.0
2015-May-23 14:33N 38°20' E 013°31'9 9.0
2015-May-23 13:33N 38°20' E 013°19'9 8.9
2015-May-23 12:33N 38°20' E 013°08'9 9.0
2015-May-23 11:34N 38°20' E 012°57'11 9.0
2015-May-23 10:22N 38°20' E 012°43'16 8.6
2015-May-23 08:30N 38°17' E 012°23'  
2015-May-19 15:22N 36°24' W 001°51'8 8.9
2015-May-19 14:31N 36°23' W 002°00'12 8.4
2015-May-19 13:08N 36°21' W 002°14'5 8.4
2015-May-19 12:32N 36°20' W 002°21'10 9.2
2015-May-19 11:24N 36°19' W 002°33'132 8.7
2015-May-18 20:17N 35°56' W 005°14'5 6.4
2015-May-18 19:34N 35°54' W 005°19'0 0.1
2015-May-18 18:31N 35°54' W 005°19'0 0.0
2015-May-18 17:31N 35°54' W 005°19'1 0.7
2015-May-18 16:33N 35°55' W 005°19'8 7.4
2015-May-18 15:31N 35°57' W 005°28'199 6.6
2015-May-17 09:33N 36°43' W 009°29'8 7.4
2015-May-17 08:30N 36°50' W 009°34'16 8.2
2015-May-17 06:33N 37°06' W 009°37'10 8.4
2015-May-17 05:25N 37°15' W 009°40'9 8.6
2015-May-17 04:19N 37°24' W 009°43'8 8.8
2015-May-17 03:28N 37°31' W 009°46'8 8.6
2015-May-17 02:33N 37°39' W 009°48'9 8.8
2015-May-17 01:33N 37°48' W 009°50'9 8.4
2015-May-17 00:26N 37°57' W 009°53'8 8.5
2015-May-16 23:33N 38°04' W 009°55'9 8.6
2015-May-16 22:33N 38°13' W 009°57'9 8.7
2015-May-16 21:33N 38°21' W 009°60'9 9.0
2015-May-16 20:33N 38°30' W 010°02'9 8.8
2015-May-16 19:29N 38°39' W 010°05'8 8.8
2015-May-16 18:32N 38°47' W 010°06'11 9.1
2015-May-16 17:20N 38°58' W 010°08'8 8.8
2015-May-16 16:26N 39°06' W 010°06'  

Dump ship's entire track history